Time;durP1;ratioP1;P1;durP2;ratioP2;P2;SDS_P1;SDS_P2;PMS_P1;PMS_P2;Temp;Humidity;BMP_temperature;BMP_pressure;BME280_temperature;BME280_humidity;BME280_pressure;Samples;Min_cycle;Max_cycle;Signal;HPM_P1;HPM_P2
2022/08/03 00:00:36;;;;;;;0.40;0.20;;;;;;;23.03;85.80;95304.44;5075335;28;20515;-60
2022/08/03 00:03:04;;;;;;;0.40;0.30;;;;;;;23.07;87.76;95306.09;5075331;28;20421;-60
2022/08/03 00:05:34;;;;;;;0.50;0.30;;;;;;;22.36;91.00;95308.03;5075503;28;20436;-60
2022/08/03 00:08:03;;;;;;;0.50;0.30;;;;;;;22.17;91.88;95305.94;5075557;28;20433;-60
2022/08/03 00:10:34;;;;;;;0.40;0.30;;;;;;;22.33;88.69;95311.41;5074605;28;20500;-60
2022/08/03 00:13:02;;;;;;;0.40;0.20;;;;;;;22.55;87.27;95310.88;5075182;28;20504;-60
2022/08/03 00:15:30;;;;;;;0.40;0.30;;;;;;;22.18;92.09;95296.72;5074995;28;20433;-60
2022/08/03 00:17:59;;;;;;;0.40;0.30;;;;;;;22.30;93.68;95310.19;5074838;28;20516;-59
2022/08/03 00:20:27;;;;;;;0.40;0.27;;;;;;;22.27;92.50;95291.97;5074689;28;21041;-60
2022/08/03 00:22:57;;;;;;;0.47;0.30;;;;;;;22.35;92.92;95301.03;5074965;28;21118;-60
2022/08/03 00:25:26;;;;;;;0.40;0.20;;;;;;;22.18;95.11;95307.53;5075182;28;20453;-60
2022/08/03 00:27:54;;;;;;;0.40;0.30;;;;;;;22.48;91.74;95302.56;5074671;28;20945;-60
2022/08/03 00:30:23;;;;;;;0.40;0.20;;;;;;;22.53;90.18;95302.31;5074641;28;20425;-60
2022/08/03 00:32:58;;;;;;;0.40;0.23;;;;;;;22.61;88.96;95299.47;5074756;28;20432;-60
2022/08/03 00:35:27;;;;;;;0.40;0.20;;;;;;;22.66;89.78;95301.16;5074815;28;20451;-60
2022/08/03 00:38:17;;;;;;;0.40;0.20;;;;;;;22.63;89.85;95302.66;5074583;28;20451;-59
2022/08/03 00:40:46;;;;;;;0.40;0.23;;;;;;;22.61;91.99;95302.19;5074488;28;20477;-59
2022/08/03 00:43:14;;;;;;;0.40;0.30;;;;;;;22.66;89.58;95301.97;5074504;28;20520;-59
2022/08/03 00:45:43;;;;;;;0.40;0.20;;;;;;;22.71;89.06;95304.41;5073820;28;20494;-59
2022/08/03 00:48:13;;;;;;;0.40;0.23;;;;;;;22.68;88.04;95307.00;5074834;28;20538;-60
2022/08/03 00:51:00;;;;;;;0.40;0.30;;;;;;;22.61;89.41;95304.88;5074726;28;20422;-59
2022/08/03 00:53:31;;;;;;;0.50;0.30;;;;;;;22.59;89.69;95311.75;5074683;28;20461;-59
2022/08/03 00:55:59;;;;;;;0.40;0.20;;;;;;;22.52;91.41;95315.03;5074175;28;20513;-59
2022/08/03 00:58:28;;;;;;;0.40;0.30;;;;;;;22.54;88.71;95309.31;5074198;28;20509;-59
2022/08/03 01:00:56;;;;;;;0.40;0.20;;;;;;;22.55;89.04;95310.88;5074152;28;20516;-59
2022/08/03 01:03:24;;;;;;;0.40;0.20;;;;;;;22.50;90.20;95303.78;5074172;28;20441;-60
2022/08/03 01:05:58;;;;;;;0.40;0.30;;;;;;;22.41;88.96;95299.69;5074161;28;20426;-60
2022/08/03 01:08:38;;;;;;;0.40;0.20;;;;;;;22.53;92.13;95297.72;5074432;28;20781;-59
2022/08/03 01:11:14;;;;;;;0.40;0.30;;;;;;;22.41;89.46;95284.28;5074276;28;20456;-59
2022/08/03 01:13:51;;;;;;;0.40;0.20;;;;;;;22.51;88.49;95305.38;5074230;28;20464;-59
2022/08/03 01:16:48;;;;;;;0.40;0.20;;;;;;;22.59;88.23;95309.06;5073771;28;20445;-59
2022/08/03 01:19:45;;;;;;;0.50;0.30;;;;;;;22.07;90.38;95309.91;5073901;28;20428;-59
2022/08/03 01:22:35;;;;;;;0.40;0.20;;;;;;;22.28;92.75;95301.66;5073353;28;20525;-59
2022/08/03 01:25:15;;;;;;;0.40;0.30;;;;;;;22.45;88.07;95317.56;5074126;28;20429;-59
2022/08/03 01:27:54;;;;;;;0.50;0.33;;;;;;;22.56;87.94;95310.53;5073974;28;20508;-59
2022/08/03 01:30:28;;;;;;;0.40;0.30;;;;;;;22.49;89.32;95310.31;5073939;28;20841;-59
2022/08/03 01:33:02;;;;;;;0.50;0.50;;;;;;;22.32;93.92;95312.53;5073616;28;20418;-60
2022/08/03 01:35:35;;;;;;;0.40;0.20;;;;;;;20.89;86.88;95085.63;5073893;28;20441;-59
2022/08/03 01:38:12;;;;;;;0.40;0.30;;;;;;;21.60;99.19;95311.56;5073574;28;20428;-60
2022/08/03 01:40:43;;;;;;;0.40;0.27;;;;;;;21.38;100.00;95314.69;5073408;28;20576;-59
2022/08/03 01:43:16;;;;;;;0.50;0.30;;;;;;;21.07;100.00;95307.19;5073533;28;20462;-59
2022/08/03 01:46:07;;;;;;;0.50;0.40;;;;;;;21.18;100.00;95307.50;5073246;28;20893;-58
2022/08/03 01:48:37;;;;;;;0.43;0.30;;;;;;;21.52;100.00;95307.06;5073667;28;20521;-58
2022/08/03 01:51:08;;;;;;;0.40;0.20;;;;;;;21.73;100.00;95305.00;5073254;28;20973;-58
2022/08/03 01:53:38;;;;;;;0.50;0.30;;;;;;;21.82;100.00;95315.69;5073320;28;20501;-59
2022/08/03 01:56:07;;;;;;;0.40;0.20;;;;;;;21.83;100.00;95299.13;5073478;28;20429;-58
2022/08/03 01:58:37;;;;;;;0.60;0.50;;;;;;;21.88;100.00;95290.06;5073395;28;20460;-58
2022/08/03 02:01:09;;;;;;;0.40;0.30;;;;;;;21.46;100.00;95303.00;5072940;28;20560;-58
2022/08/03 02:03:40;;;;;;;0.40;0.30;;;;;;;21.44;100.00;95303.38;5073085;28;20425;-59
2022/08/03 02:06:30;;;;;;;0.40;0.30;;;;;;;21.72;100.00;95306.16;5072853;28;20866;-58
2022/08/03 02:09:22;;;;;;;0.90;0.40;;;;;;;21.80;100.00;95296.34;5071786;28;20990;-58
2022/08/03 02:11:52;;;;;;;0.40;0.30;;;;;;;21.83;100.00;95299.13;5072839;28;20437;-58
2022/08/03 02:14:22;;;;;;;0.50;0.30;;;;;;;21.82;98.17;95294.09;5073144;28;20501;-58
2022/08/03 02:16:53;;;;;;;0.40;0.20;;;;;;;21.81;99.48;95301.41;5072508;28;20983;-58
2022/08/03 02:19:22;;;;;;;0.50;0.30;;;;;;;21.86;99.33;95295.00;5073015;28;20505;-58
2022/08/03 02:21:53;;;;;;;0.50;0.30;;;;;;;21.71;98.84;95285.69;5072589;28;20548;-58
2022/08/03 02:24:28;;;;;;;0.40;0.20;;;;;;;21.69;97.92;95301.41;5072515;28;20429;-57
2022/08/03 02:26:59;;;;;;;0.93;0.30;;;;;;;21.80;96.19;95304.44;5072553;28;20422;-58
2022/08/03 02:29:32;;;;;;;0.40;0.20;;;;;;;21.86;95.27;95306.59;5072439;28;20487;-58
2022/08/03 02:32:12;;;;;;;0.40;0.20;;;;;;;21.59;97.17;95301.88;5072783;28;20467;-58
2022/08/03 02:34:44;;;;;;;0.57;0.57;;;;;;;21.67;95.62;95292.09;5072672;28;20434;-57
2022/08/03 02:37:15;;;;;;;0.40;0.20;;;;;;;21.37;100.00;95300.44;5072411;28;20979;-58
2022/08/03 02:39:44;;;;;;;0.50;0.30;;;;;;;20.63;100.00;95303.34;5072309;28;20426;-58
2022/08/03 02:42:16;;;;;;;0.60;0.50;;;;;;;20.55;100.00;95309.59;5072462;28;20583;-58
2022/08/03 02:44:50;;;;;;;0.40;0.30;;;;;;;20.56;100.00;95310.41;5072432;28;20482;-58
2022/08/03 02:47:21;;;;;;;0.50;0.30;;;;;;;20.71;100.00;95293.59;5072515;28;20448;-58
2022/08/03 02:49:50;;;;;;;0.40;0.30;;;;;;;20.60;100.00;95301.31;5072153;28;20758;-57
2022/08/03 02:52:23;;;;;;;0.40;0.20;;;;;;;20.70;100.00;95305.47;5072368;28;20500;-57
2022/08/03 02:54:55;;;;;;;1.50;1.40;;;;;;;20.31;100.00;95300.66;5072038;28;20490;-57
2022/08/03 02:57:25;;;;;;;0.70;0.40;;;;;;;19.42;100.00;95189.81;5071950;28;20525;-57
2022/08/03 02:59:55;;;;;;;0.50;0.30;;;;;;;20.38;100.00;95314.38;5071891;28;20921;-58
2022/08/03 03:02:25;;;;;;;0.40;0.30;;;;;;;19.80;100.00;95251.53;5072202;28;20580;-57
2022/08/03 03:04:56;;;;;;;0.40;0.30;;;;;;;20.29;100.00;95319.06;5071996;28;20525;-57
2022/08/03 03:07:46;;;;;;;0.40;0.20;;;;;;;20.57;100.00;95315.44;5071529;28;20815;-57
2022/08/03 03:10:21;;;;;;;0.40;0.30;;;;;;;20.93;100.00;95312.06;5071682;28;20432;-58
2022/08/03 03:12:52;;;;;;;0.40;0.20;;;;;;;21.16;100.00;95315.13;5071597;28;20425;-58
2022/08/03 03:15:21;;;;;;;0.40;0.20;;;;;;;20.68;100.00;95294.25;5070990;28;20433;-57
2022/08/03 03:17:53;;;;;;;0.40;0.30;;;;;;;20.39;100.00;95321.34;5071352;28;20504;-57
2022/08/03 03:20:23;;;;;;;0.40;0.30;;;;;;;20.54;100.00;95318.03;5070926;28;20473;-58
2022/08/03 03:22:58;;;;;;;0.50;0.40;;;;;;;20.86;100.00;95320.69;5071610;28;20459;-58
2022/08/03 03:25:28;;;;;;;0.40;0.30;;;;;;;20.98;100.00;95314.53;5071241;28;20426;-58
2022/08/03 03:27:56;;;;;;;0.40;0.30;;;;;;;21.08;100.00;95316.03;5071112;28;20513;-58
2022/08/03 03:30:25;;;;;;;0.50;0.30;;;;;;;21.08;100.00;95316.03;5071424;28;20872;-58
2022/08/03 03:32:55;;;;;;;0.40;0.20;;;;;;;21.18;100.00;95310.19;5071153;28;20471;-51
2022/08/03 03:35:24;;;;;;;0.40;0.20;;;;;;;21.32;100.00;95321.44;5071429;28;20472;-51
2022/08/03 03:37:53;;;;;;;0.40;0.20;;;;;;;21.42;100.00;95324.50;5071445;28;20465;-50
2022/08/03 03:40:22;;;;;;;0.40;0.20;;;;;;;21.51;100.00;95314.38;5071201;28;20520;-51
2022/08/03 03:42:50;;;;;;;0.40;0.20;;;;;;;21.64;100.00;95319.75;5071316;28;21059;-51
2022/08/03 03:45:20;;;;;;;0.40;0.30;;;;;;;21.67;100.00;95325.25;5071094;28;20516;-50
2022/08/03 03:47:50;;;;;;;0.53;0.53;;;;;;;21.66;100.00;95329.06;5071366;28;20422;-50
2022/08/03 03:50:20;;;;;;;0.57;0.57;;;;;;;21.70;100.00;95335.38;5071215;28;20467;-50
2022/08/03 03:52:49;;;;;;;0.50;0.40;;;;;;;21.76;100.00;95335.91;5071019;28;20476;-51
2022/08/03 03:55:18;;;;;;;0.40;0.20;;;;;;;21.60;100.00;95335.03;5071347;28;20460;-51
2022/08/03 03:57:46;;;;;;;0.40;0.20;;;;;;;21.50;100.00;95353.22;5071142;28;20525;-51
2022/08/03 04:00:17;;;;;;;0.50;0.30;;;;;;;21.76;100.00;95342.09;5071118;28;20511;-51
2022/08/03 04:02:46;;;;;;;0.40;0.20;;;;;;;21.26;100.00;95304.72;5070992;28;20996;-51
2022/08/03 04:11:05;;;;;;;0.40;0.20;;;;;;;21.68;100.00;95353.03;5070876;28;20421;-51
2022/08/03 04:13:36;;;;;;;0.50;0.50;;;;;;;21.87;100.00;95358.66;5071326;28;20461;-51
2022/08/03 04:16:07;;;;;;;2.50;0.30;;;;;;;22.08;100.00;95354.69;5071094;28;20521;-51
2022/08/03 04:18:38;;;;;;;0.40;0.30;;;;;;;22.21;100.00;95347.34;5070699;28;20468;-51
2022/08/03 04:21:11;;;;;;;0.70;0.70;;;;;;;22.25;100.00;95355.53;5070842;28;21007;-53
2022/08/03 04:23:46;;;;;;;0.40;0.20;;;;;;;22.29;100.00;95346.41;5071358;28;20429;-54
2022/08/03 04:26:19;;;;;;;0.40;0.20;;;;;;;22.38;100.00;95344.38;5070776;28;20429;-53
2022/08/03 04:28:50;;;;;;;0.40;0.20;;;;;;;22.45;100.00;95331.06;5070941;28;20508;-53
2022/08/03 04:31:22;;;;;;;0.40;0.20;;;;;;;22.59;100.00;95349.59;5070910;28;20432;-52
2022/08/03 04:33:52;;;;;;;0.40;0.20;;;;;;;22.71;100.00;95353.03;5074415;28;20465;-52
2022/08/03 04:36:23;;;;;;;0.40;0.20;;;;;;;22.85;100.00;95358.03;5074446;28;20516;-51
2022/08/03 04:39:00;;;;;;;0.40;0.20;;;;;;;22.98;100.00;95361.44;5074545;28;20856;-51
2022/08/03 04:41:30;;;;;;;3.90;1.47;;;;;;;22.31;97.09;95259.66;5074366;28;20460;-51
2022/08/03 04:44:00;;;;;;;0.40;0.30;;;;;;;22.71;99.75;95357.66;5074335;28;20884;-52
2022/08/03 04:46:32;;;;;;;0.40;0.30;;;;;;;22.29;100.00;95351.81;5074456;28;20452;-51
2022/08/03 04:49:02;;;;;;;0.50;0.30;;;;;;;22.83;100.00;95354.09;5074224;28;20421;-52
2022/08/03 04:51:33;;;;;;;0.40;0.30;;;;;;;22.89;99.46;95347.31;5074375;28;20429;-52
2022/08/03 04:54:03;;;;;;;0.40;0.30;;;;;;;23.04;96.66;95349.25;5074181;28;20453;-51
2022/08/03 04:56:33;;;;;;;0.40;0.30;;;;;;;22.53;98.57;95334.75;5073679;28;20524;-51
2022/08/03 04:59:01;;;;;;;0.40;0.20;;;;;;;22.97;100.00;95349.09;5074119;28;20559;-50
2022/08/03 05:01:30;;;;;;;0.73;0.50;;;;;;;22.39;94.32;95351.31;5073818;28;20905;-51
2022/08/03 05:03:59;;;;;;;0.50;0.50;;;;;;;21.93;96.88;95355.41;5073994;28;20449;-51
2022/08/03 05:06:27;;;;;;;0.60;0.50;;;;;;;22.03;97.88;95354.13;5074197;28;20450;-51
2022/08/03 05:08:55;;;;;;;0.50;0.50;;;;;;;22.16;100.00;95353.00;5073780;28;20437;-51
2022/08/03 05:11:25;;;;;;;0.50;0.40;;;;;;;21.80;100.00;95353.00;5073737;28;20532;-51
2022/08/03 05:13:54;;;;;;;0.40;0.30;;;;;;;21.97;99.50;95358.19;5073774;28;20810;-51
2022/08/03 05:16:24;;;;;;;0.87;0.40;;;;;;;21.82;95.61;95334.56;5073586;28;20512;-51
2022/08/03 05:18:53;;;;;;;1.00;0.90;;;;;;;22.17;93.45;95346.44;5073610;28;20533;-51
2022/08/03 05:21:21;;;;;;;0.50;0.30;;;;;;;22.36;95.91;95352.03;5073515;28;20496;-51
2022/08/03 05:23:49;;;;;;;0.60;0.40;;;;;;;22.35;91.93;95352.34;5073541;28;21005;-51
2022/08/03 05:26:18;;;;;;;0.63;0.63;;;;;;;23.00;95.06;95348.38;5073360;28;20449;-51
2022/08/03 05:28:47;;;;;;;0.40;0.30;;;;;;;23.58;88.00;95347.56;5073229;28;20517;-50
2022/08/03 05:31:19;;;;;;;1.00;0.70;;;;;;;23.27;90.07;95350.25;5073628;28;20508;-51
2022/08/03 05:33:48;;;;;;;0.40;0.30;;;;;;;23.52;87.99;95356.28;5073078;28;20461;-51
2022/08/03 05:36:16;;;;;;;1.53;0.60;;;;;;;22.66;84.86;95345.19;5073407;28;20483;-51
2022/08/03 05:38:45;;;;;;;0.60;0.60;;;;;;;22.41;88.08;95349.09;5073174;28;20516;-51
2022/08/03 05:41:13;;;;;;;0.40;0.30;;;;;;;22.97;87.95;95352.56;5073220;28;20421;-51
2022/08/03 05:43:52;;;;;;;0.50;0.30;;;;;;;23.71;91.07;95359.06;5072770;28;21030;-52
2022/08/03 05:46:22;;;;;;;0.40;0.30;;;;;;;23.90;82.23;95365.34;5073044;28;20856;-52
2022/08/03 05:48:51;;;;;;;1.07;0.70;;;;;;;23.27;85.04;95369.97;5073330;28;20809;-51
2022/08/03 05:51:19;;;;;;;0.90;0.47;;;;;;;23.43;87.89;95363.81;5072986;28;20898;-52
2022/08/03 05:53:48;;;;;;;0.43;0.30;;;;;;;24.12;83.04;95372.03;5073158;28;20433;-52
2022/08/03 05:56:16;;;;;;;0.50;0.30;;;;;;;24.19;84.64;95366.75;5073152;28;20496;-52
2022/08/03 05:58:46;;;;;;;0.50;0.43;;;;;;;24.41;85.58;95373.44;5072640;28;20429;-52
2022/08/03 06:01:17;;;;;;;0.60;0.33;;;;;;;24.43;80.91;95371.94;5072899;28;20837;-51
2022/08/03 06:03:46;;;;;;;0.40;0.30;;;;;;;24.81;77.25;95364.97;5072536;28;20513;-52
2022/08/03 06:06:14;;;;;;;0.70;0.50;;;;;;;24.69;74.33;95368.59;5072966;28;20422;-52
2022/08/03 06:08:44;;;;;;;0.40;0.30;;;;;;;24.90;74.69;95368.22;5072768;28;20480;-52
2022/08/03 06:11:13;;;;;;;0.40;0.30;;;;;;;25.27;77.07;95361.19;5071700;28;20431;-52
2022/08/03 06:13:41;;;;;;;0.40;0.20;;;;;;;25.84;69.49;95362.91;5072372;28;20863;-52
2022/08/03 06:16:09;;;;;;;0.57;0.57;;;;;;;25.74;65.88;95358.09;5072843;28;20441;-52
2022/08/03 06:18:40;;;;;;;0.40;0.30;;;;;;;26.13;68.66;95351.34;5072126;28;20565;-52
2022/08/03 06:21:09;;;;;;;0.50;0.30;;;;;;;26.62;62.09;95358.56;5072322;28;20427;-52
2022/08/03 06:23:44;;;;;;;0.40;0.30;;;;;;;26.19;62.99;95303.69;5072222;28;20479;-52
2022/08/03 06:26:24;;;;;;;0.50;0.40;;;;;;;26.09;63.56;95339.59;5072228;28;20429;-53
2022/08/03 06:28:53;;;;;;;0.40;0.30;;;;;;;26.16;63.15;95339.72;5072204;28;20476;-53
2022/08/03 06:31:25;;;;;;;0.40;0.40;;;;;;;26.79;63.72;95358.03;5071699;28;20455;-52
2022/08/03 06:34:03;;;;;;;0.40;0.30;;;;;;;27.16;57.34;95350.66;5071995;28;20418;-52
2022/08/03 06:36:53;;;;;;;0.50;0.40;;;;;;;26.75;58.68;95344.38;5071873;28;20431;-52
2022/08/03 06:39:29;;;;;;;0.50;0.47;;;;;;;27.24;57.97;95346.06;5072154;28;20508;-53
2022/08/03 06:41:58;;;;;;;0.40;0.30;;;;;;;27.52;54.83;95347.16;5072214;28;20429;-53
2022/08/03 06:44:26;;;;;;;0.40;0.30;;;;;;;27.73;54.26;95344.56;5072081;28;20465;-53
2022/08/03 06:46:54;;;;;;;0.40;0.30;;;;;;;28.09;55.45;95342.91;5071222;28;20452;-53
2022/08/03 06:49:24;;;;;;;0.40;0.40;;;;;;;27.89;53.80;95349.75;5071756;28;20463;-53
2022/08/03 06:51:53;;;;;;;0.70;0.70;;;;;;;27.03;66.79;95352.09;5071754;28;20426;-50
2022/08/03 06:54:36;;;;;;;0.40;0.40;;;;;;;26.83;74.04;95350.69;5070975;28;20486;-53
2022/08/03 06:57:06;;;;;;;0.73;0.73;;;;;;;26.73;77.47;95341.25;5071683;28;20532;-50
2022/08/03 06:59:35;;;;;;;0.93;0.80;;;;;;;27.30;72.92;95360.91;5071728;28;20464;-51
2022/08/03 07:02:24;;;;;;;0.40;0.40;;;;;;;27.32;72.75;95345.00;5071594;28;20441;-52
2022/08/03 07:04:57;;;;;;;1.17;0.47;;;;;;;27.58;67.97;95355.72;5071877;28;20469;-51
2022/08/03 07:07:26;;;;;;;0.50;0.47;;;;;;;27.16;69.55;95293.53;5071626;28;21000;-52
2022/08/03 07:09:54;;;;;;;0.40;0.30;;;;;;;26.85;73.01;95359.25;5072054;28;20433;-52
2022/08/03 07:12:26;;;;;;;0.50;0.50;;;;;;;26.99;65.54;95354.75;5072043;28;20417;-53
2022/08/03 07:14:56;;;;;;;0.50;0.40;;;;;;;27.90;65.74;95342.38;5071724;28;20461;-49
2022/08/03 07:17:30;;;;;;;0.50;0.50;;;;;;;28.38;65.98;95353.97;5071534;28;20465;-50
2022/08/03 07:20:01;;;;;;;0.40;0.30;;;;;;;28.64;58.40;95342.84;5071617;28;20433;-52
2022/08/03 07:22:30;;;;;;;0.80;0.60;;;;;;;28.39;59.80;95352.81;5071663;28;20468;-55
2022/08/03 07:24:59;;;;;;;0.60;0.50;;;;;;;26.78;64.79;95351.03;5071567;28;20525;-67
2022/08/03 07:27:29;;;;;;;0.50;0.50;;;;;;;27.45;68.59;95346.31;5071716;28;20502;-62
2022/08/03 07:29:58;;;;;;;0.70;0.40;;;;;;;27.86;64.13;95349.72;5071745;28;20433;-61
2022/08/03 07:32:30;;;;;;;0.77;0.50;;;;;;;27.15;62.54;95307.50;5071531;28;20453;-59
2022/08/03 07:35:00;;;;;;;2.70;2.50;;;;;;;27.62;64.13;95349.19;5071917;28;20433;-58
2022/08/03 07:37:29;;;;;;;0.47;0.40;;;;;;;28.07;66.86;95352.63;5071490;28;20446;-56
2022/08/03 07:39:59;;;;;;;0.50;0.50;;;;;;;27.13;69.61;95350.63;5071371;28;20437;-57
2022/08/03 07:42:28;;;;;;;1.43;0.60;;;;;;;26.87;69.77;95346.06;5071509;28;20982;-61
2022/08/03 07:44:57;;;;;;;0.50;0.50;;;;;;;27.26;66.03;95352.72;5071654;28;20518;-60
2022/08/03 07:47:28;;;;;;;0.40;0.40;;;;;;;27.38;65.66;95346.19;5071222;28;20457;-62
2022/08/03 07:50:05;;;;;;;3.60;0.60;;;;;;;27.25;60.71;95345.69;5071515;28;20482;-64
2022/08/03 07:52:48;;;;;;;0.30;0.20;;;;;;;28.10;60.25;95349.16;5071899;28;20448;-60
2022/08/03 07:55:17;;;;;;;0.40;0.33;;;;;;;28.01;55.52;95344.03;5071494;28;20925;-61
2022/08/03 07:57:46;;;;;;;0.97;0.97;;;;;;;27.72;58.20;95344.97;5071661;28;20811;-60
2022/08/03 08:00:17;;;;;;;0.40;0.37;;;;;;;28.06;59.18;95342.88;5071520;28;20476;-63
2022/08/03 08:02:45;;;;;;;2.70;1.17;;;;;;;27.60;59.00;95354.19;5071172;28;20425;-63
2022/08/03 08:05:15;;;;;;;0.60;0.50;;;;;;;27.88;59.42;95348.19;5071197;28;20529;-62
2022/08/03 08:07:43;;;;;;;0.40;0.30;;;;;;;27.88;62.89;95348.19;5073542;28;20524;-66
2022/08/03 08:10:19;;;;;;;0.80;0.80;;;;;;;28.51;58.47;95336.91;5075208;28;20439;-61
2022/08/03 08:12:48;;;;;;;0.40;0.30;;;;;;;28.72;55.71;95341.69;5074711;28;20501;-62
2022/08/03 08:15:16;;;;;;;0.40;0.40;;;;;;;29.07;52.33;95335.56;5074910;28;20478;-63
2022/08/03 08:17:46;;;;;;;0.50;0.40;;;;;;;29.16;51.96;95331.28;5074641;28;20530;-68
2022/08/03 08:20:18;;;;;;;0.40;0.30;;;;;;;29.91;47.45;95330.19;5074902;28;20491;-66
2022/08/03 08:22:57;;;;;;;0.60;0.40;;;;;;;31.05;48.78;95330.63;5074872;28;20972;-67
2022/08/03 08:25:29;;;;;;;0.60;0.60;;;;;;;31.29;40.81;95335.19;5074693;28;20421;-67
2022/08/03 08:28:00;;;;;;;0.60;0.40;;;;;;;31.23;40.40;95334.03;5074754;28;20427;-68
2022/08/03 08:30:49;;;;;;;0.80;0.80;;;;;;;31.86;44.42;95325.38;5074615;28;20518;-69
2022/08/03 08:33:18;;;;;;;2.93;0.47;;;;;;;32.74;37.76;95320.94;5074624;28;20465;-66
2022/08/03 08:35:53;;;;;;;0.50;0.40;;;;;;;32.48;36.89;95316.94;5074627;28;20518;-70
2022/08/03 08:38:22;;;;;;;0.40;0.30;;;;;;;33.12;37.08;95311.44;5074807;28;20428;-62
2022/08/03 08:40:51;;;;;;;0.50;0.40;;;;;;;33.70;36.23;95307.41;5074424;28;20467;-63
2022/08/03 08:43:20;;;;;;;0.50;0.43;;;;;;;34.08;37.66;95305.22;5074529;28;20475;-62
2022/08/03 08:45:50;;;;;;;0.40;0.30;;;;;;;34.00;36.38;95297.50;5074389;28;20475;-62
2022/08/03 08:48:22;;;;;;;0.40;0.40;;;;;;;33.99;34.89;95307.72;5074730;28;20499;-62
2022/08/03 08:50:55;;;;;;;0.40;0.30;;;;;;;34.59;34.36;95300.34;5074286;28;20881;-62
2022/08/03 08:53:26;;;;;;;0.53;0.40;;;;;;;33.65;34.32;95296.16;5074214;28;21029;-63
2022/08/03 08:55:59;;;;;;;0.50;0.43;;;;;;;32.47;36.27;95293.41;5074526;28;20811;-62
2022/08/03 08:58:42;;;;;;;0.40;0.40;;;;;;;31.93;37.51;95299.84;5074265;28;20491;-64
2022/08/03 09:01:10;;;;;;;0.63;0.60;;;;;;;32.69;38.49;95284.94;5074097;28;20429;-63
2022/08/03 09:03:39;;;;;;;0.30;0.30;;;;;;;33.62;36.92;95294.22;5074479;28;20469;-63
2022/08/03 09:06:08;;;;;;;0.30;0.27;;;;;;;34.41;34.99;95281.41;5074229;28;20430;-62
2022/08/03 09:08:37;;;;;;;0.40;0.40;;;;;;;33.01;34.93;95286.06;5074431;28;20509;-62
2022/08/03 09:11:06;;;;;;;0.50;0.50;;;;;;;33.25;35.68;95287.69;5074184;28;20515;-62
2022/08/03 09:13:35;;;;;;;0.67;0.50;;;;;;;33.80;35.99;95275.47;5074084;28;20905;-62
2022/08/03 09:16:14;;;;;;;0.60;0.60;;;;;;;33.80;35.30;95283.72;5073909;28;20516;-62
2022/08/03 09:18:44;;;;;;;0.40;0.37;;;;;;;34.66;34.51;95278.94;5073144;28;20526;-60
2022/08/03 09:21:19;;;;;;;0.40;0.30;;;;;;;35.02;33.03;95282.50;5073855;28;20858;-61
2022/08/03 09:24:06;;;;;;;0.67;0.67;;;;;;;34.61;33.09;95279.44;5073903;28;20484;-61
2022/08/03 09:26:52;;;;;;;0.40;0.40;;;;;;;34.98;31.55;95268.03;5073689;28;20440;-60
2022/08/03 09:29:22;;;;;;;0.50;0.50;;;;;;;34.82;30.12;95276.25;5073592;28;20908;-61
2022/08/03 09:32:01;;;;;;;0.40;0.30;;;;;;;34.53;30.41;95274.50;5073601;28;21024;-58
2022/08/03 09:34:30;;;;;;;0.40;0.40;;;;;;;35.05;30.01;95273.41;5073793;28;20452;-58
2022/08/03 09:36:59;;;;;;;0.30;0.30;;;;;;;35.65;29.16;95265.69;5073336;28;20940;-58
2022/08/03 09:39:30;;;;;;;0.40;0.30;;;;;;;36.43;29.98;95264.44;5073439;28;20424;-58
2022/08/03 09:42:10;;;;;;;0.60;0.40;;;;;;;35.42;30.06;95272.13;5073399;28;20936;-57
2022/08/03 09:44:43;;;;;;;0.50;0.40;;;;;;;34.89;31.72;95231.28;5073466;28;20206;-58
2022/08/03 09:47:13;;;;;;;1.33;0.50;;;;;;;35.13;30.46;95268.50;5073446;28;20486;-58
2022/08/03 09:49:42;;;;;;;0.47;0.47;;;;;;;33.87;30.98;95264.34;5073209;28;20569;-58
2022/08/03 09:52:18;;;;;;;0.30;0.30;;;;;;;34.30;29.66;95247.81;5072996;28;20187;-58
2022/08/03 09:55:01;;;;;;;0.70;0.50;;;;;;;34.59;28.38;95243.31;5072885;28;20420;-59
2022/08/03 09:57:30;;;;;;;0.40;0.30;;;;;;;35.74;27.80;95246.56;5072594;28;20472;-60
2022/08/03 10:00:12;;;;;;;0.40;0.20;;;;;;;36.40;29.00;95242.44;5073038;28;20456;-53
2022/08/03 10:02:41;;;;;;;0.80;0.80;;;;;;;36.41;27.73;95244.00;5072949;28;20908;-54
2022/08/03 10:05:11;;;;;;;0.40;0.40;;;;;;;35.49;28.38;95241.66;5072267;28;20309;-54
2022/08/03 10:07:49;;;;;;;1.27;0.37;;;;;;;34.81;27.12;95159.03;5072866;28;20263;-54
2022/08/03 10:10:18;;;;;;;0.40;0.40;;;;;;;36.04;27.21;95239.91;5072647;28;20190;-55
2022/08/03 10:13:00;;;;;;;0.30;0.30;;;;;;;36.88;25.78;95231.19;5072796;28;20182;-55
2022/08/03 10:15:29;;;;;;;0.60;0.53;;;;;;;35.42;26.84;95159.13;5072002;28;20679;-54
2022/08/03 10:18:17;;;;;;;0.30;0.20;;;;;;;34.87;27.15;95228.13;5072151;28;20226;-55
2022/08/03 10:20:51;;;;;;;0.40;0.40;;;;;;;35.30;28.33;95230.69;5072401;28;20662;-54
2022/08/03 10:23:23;;;;;;;0.80;0.80;;;;;;;35.16;27.88;95236.56;5072789;28;20268;-54
2022/08/03 10:25:58;;;;;;;0.40;0.40;;;;;;;35.38;27.61;95226.56;5072162;28;20218;-55
2022/08/03 10:28:34;;;;;;;0.50;0.40;;;;;;;35.93;26.17;95220.84;5072182;28;20186;-54
2022/08/03 10:31:06;;;;;;;0.40;0.30;;;;;;;35.42;26.70;95228.03;5071525;28;20228;-55
2022/08/03 10:33:37;;;;;;;1.13;0.43;;;;;;;34.85;25.90;95231.34;5072266;28;20277;-55
2022/08/03 10:36:23;;;;;;;0.30;0.30;;;;;;;33.31;28.72;95230.31;5071953;28;20244;-55
2022/08/03 10:38:53;;;;;;;0.40;0.30;;;;;;;33.31;31.63;95249.53;5072170;28;20711;-56
2022/08/03 10:41:26;;;;;;;0.30;0.30;;;;;;;33.72;30.36;95219.03;5072422;28;20190;-55
2022/08/03 10:44:05;;;;;;;0.37;0.30;;;;;;;33.74;30.90;95239.41;5072323;28;20214;-55
2022/08/03 10:46:35;;;;;;;0.40;0.30;;;;;;;33.40;31.37;95233.28;5071668;28;20972;-55
2022/08/03 10:49:13;;;;;;;0.40;0.30;;;;;;;33.00;31.29;95237.81;5072041;28;20876;-55
2022/08/03 10:51:42;;;;;;;0.37;0.27;;;;;;;33.14;32.83;95236.88;5072268;28;20433;-55
2022/08/03 10:57:48;;;;;;;0.40;0.30;;;;;;;32.25;40.18;95241.94;5050209;28;20489;-55
2022/08/03 11:00:20;;;;;;;0.40;0.30;;;;;;;32.20;42.98;95210.28;5071834;28;20976;-55
2022/08/03 11:03:08;;;;;;;0.40;0.30;;;;;;;31.78;41.11;95238.09;5071491;28;20437;-56
2022/08/03 11:05:39;;;;;;;0.40;0.30;;;;;;;31.83;40.38;95238.44;5071926;28;20876;-56
2022/08/03 11:08:28;;;;;;;0.50;0.30;;;;;;;31.71;39.23;95228.00;5070561;28;20963;-56
2022/08/03 11:11:01;;;;;;;0.43;0.40;;;;;;;32.01;34.07;95222.63;5071689;28;20426;-56
2022/08/03 11:13:32;;;;;;;0.40;0.30;;;;;;;31.92;31.49;95219.56;5071671;28;20471;-56
2022/08/03 11:16:18;;;;;;;0.40;0.40;;;;;;;32.40;34.15;95210.41;5072145;28;20431;-57
2022/08/03 11:18:57;;;;;;;0.30;0.20;;;;;;;33.16;31.21;95182.28;5071248;28;20499;-56
2022/08/03 11:21:52;;;;;;;0.40;0.30;;;;;;;33.60;30.41;95198.41;5071522;28;20434;-55
2022/08/03 11:24:57;;;;;;;0.33;0.30;;;;;;;33.69;28.79;95206.13;5071431;28;20484;-55
2022/08/03 11:27:28;;;;;;;0.40;0.30;;;;;;;33.93;28.64;95199.38;5071360;28;20438;-55
2022/08/03 11:30:00;;;;;;;0.50;0.47;;;;;;;34.19;29.98;95205.97;5071424;28;20448;-55
2022/08/03 11:32:55;;;;;;;0.60;0.40;;;;;;;34.51;29.75;95195.06;5071289;28;20436;-55
2022/08/03 11:35:25;;;;;;;0.57;0.43;;;;;;;34.89;28.89;95190.69;5071088;28;20880;-55
2022/08/03 11:38:12;;;;;;;0.40;0.33;;;;;;;35.39;27.40;95151.75;5071678;28;20446;-56
2022/08/03 11:40:43;;;;;;;0.40;0.40;;;;;;;34.47;27.15;95188.88;5072175;28;20771;-56
2022/08/03 11:43:46;;;;;;;0.30;0.30;;;;;;;34.62;28.10;95194.88;5075507;28;20460;-56
2022/08/03 11:46:20;;;;;;;0.40;0.30;;;;;;;34.80;27.68;95193.28;5075324;28;20498;-55
2022/08/03 11:49:04;;;;;;;0.40;0.40;;;;;;;34.40;30.67;95183.53;5075627;28;20433;-56
2022/08/03 11:51:38;;;;;;;0.60;0.60;;;;;;;34.07;29.75;95176.38;5074996;28;20432;-55
2022/08/03 11:54:08;;;;;;;0.40;0.30;;;;;;;35.22;28.61;95130.16;5074493;28;20435;-55
2022/08/03 11:56:46;;;;;;;0.40;0.40;;;;;;;36.18;25.37;95176.81;5075450;28;20428;-55
2022/08/03 11:59:17;;;;;;;0.50;0.50;;;;;;;36.74;24.57;95107.31;5075087;28;20527;-55
2022/08/03 12:01:50;;;;;;;0.30;0.30;;;;;;;37.65;24.17;95169.13;5075164;28;20526;-55
2022/08/03 12:04:19;;;;;;;0.30;0.30;;;;;;;38.30;24.65;95167.19;5075289;28;20570;-55
2022/08/03 12:07:00;;;;;;;0.30;0.20;;;;;;;38.49;23.62;95162.53;5074702;28;20657;-55